sensor_id;sensor_type;location;lat;lon;timestamp;temperature;humidity
14411;DHT22;7290;50.854;4.354;2023-07-02T00:00:33;17.80;99.90
14411;DHT22;7290;50.854;4.354;2023-07-02T00:05:25;18.00;99.90
14411;DHT22;7290;50.854;4.354;2023-07-02T00:07:51;18.00;99.90
14411;DHT22;7290;50.854;4.354;2023-07-02T00:10:18;18.00;99.90
14411;DHT22;7290;50.854;4.354;2023-07-02T00:12:44;18.00;99.90
14411;DHT22;7290;50.854;4.354;2023-07-02T00:15:11;18.00;99.90
14411;DHT22;7290;50.854;4.354;2023-07-02T00:17:37;17.90;99.90
14411;DHT22;7290;50.854;4.354;2023-07-02T00:20:06;17.90;99.90
14411;DHT22;7290;50.854;4.354;2023-07-02T00:22:40;18.00;99.90
14411;DHT22;7290;50.854;4.354;2023-07-02T00:25:07;17.90;99.90
14411;DHT22;7290;50.854;4.354;2023-07-02T00:27:33;17.90;99.90
14411;DHT22;7290;50.854;4.354;2023-07-02T00:29:59;17.80;99.90
14411;DHT22;7290;50.854;4.354;2023-07-02T00:32:26;17.80;99.90
14411;DHT22;7290;50.854;4.354;2023-07-02T00:34:52;17.90;99.90
14411;DHT22;7290;50.854;4.354;2023-07-02T00:37:18;17.90;99.90
14411;DHT22;7290;50.854;4.354;2023-07-02T00:39:44;17.90;99.90
14411;DHT22;7290;50.854;4.354;2023-07-02T00:42:11;17.80;99.90
14411;DHT22;7290;50.854;4.354;2023-07-02T00:44:37;17.70;99.90
14411;DHT22;7290;50.854;4.354;2023-07-02T00:47:06;17.80;99.90
14411;DHT22;7290;50.854;4.354;2023-07-02T00:49:33;17.90;99.90
14411;DHT22;7290;50.854;4.354;2023-07-02T00:51:59;18.00;99.90
14411;DHT22;7290;50.854;4.354;2023-07-02T00:54:28;17.90;99.90
14411;DHT22;7290;50.854;4.354;2023-07-02T00:56:54;17.80;99.90
14411;DHT22;7290;50.854;4.354;2023-07-02T00:59:20;17.80;99.90
14411;DHT22;7290;50.854;4.354;2023-07-02T01:01:47;17.70;99.90
14411;DHT22;7290;50.854;4.354;2023-07-02T01:04:17;17.70;99.90
14411;DHT22;7290;50.854;4.354;2023-07-02T01:06:44;17.70;99.90
14411;DHT22;7290;50.854;4.354;2023-07-02T01:09:10;17.70;99.90
14411;DHT22;7290;50.854;4.354;2023-07-02T01:11:40;17.70;99.90
14411;DHT22;7290;50.854;4.354;2023-07-02T01:14:08;17.70;99.90
14411;DHT22;7290;50.854;4.354;2023-07-02T01:16:36;17.80;99.90
14411;DHT22;7290;50.854;4.354;2023-07-02T01:19:05;17.90;99.90
14411;DHT22;7290;50.854;4.354;2023-07-02T01:21:34;17.90;99.90
14411;DHT22;7290;50.854;4.354;2023-07-02T01:24:01;17.90;99.90
14411;DHT22;7290;50.854;4.354;2023-07-02T01:26:31;18.00;99.90
14411;DHT22;7290;50.854;4.354;2023-07-02T01:28:59;18.00;99.90
14411;DHT22;7290;50.854;4.354;2023-07-02T01:31:25;18.00;99.90
14411;DHT22;7290;50.854;4.354;2023-07-02T01:33:51;18.00;99.90
14411;DHT22;7290;50.854;4.354;2023-07-02T01:36:18;17.90;99.90
14411;DHT22;7290;50.854;4.354;2023-07-02T01:38:44;17.90;99.90
14411;DHT22;7290;50.854;4.354;2023-07-02T01:41:10;17.90;99.90
14411;DHT22;7290;50.854;4.354;2023-07-02T01:43:36;17.80;99.90
14411;DHT22;7290;50.854;4.354;2023-07-02T01:46:02;17.70;99.90
14411;DHT22;7290;50.854;4.354;2023-07-02T01:48:28;17.80;99.90
14411;DHT22;7290;50.854;4.354;2023-07-02T01:50:55;17.90;99.90
14411;DHT22;7290;50.854;4.354;2023-07-02T01:53:21;17.90;99.90
14411;DHT22;7290;50.854;4.354;2023-07-02T01:55:47;17.90;99.90
14411;DHT22;7290;50.854;4.354;2023-07-02T01:58:14;17.80;99.90
14411;DHT22;7290;50.854;4.354;2023-07-02T02:00:40;17.80;99.90
14411;DHT22;7290;50.854;4.354;2023-07-02T02:03:06;17.60;99.90
14411;DHT22;7290;50.854;4.354;2023-07-02T02:05:32;17.60;99.90
14411;DHT22;7290;50.854;4.354;2023-07-02T02:07:58;17.70;99.90
14411;DHT22;7290;50.854;4.354;2023-07-02T02:10:25;17.80;99.90
14411;DHT22;7290;50.854;4.354;2023-07-02T02:12:51;17.70;99.90
14411;DHT22;7290;50.854;4.354;2023-07-02T02:15:17;17.70;99.90
14411;DHT22;7290;50.854;4.354;2023-07-02T02:17:44;17.70;99.90
14411;DHT22;7290;50.854;4.354;2023-07-02T02:20:11;17.60;99.90
14411;DHT22;7290;50.854;4.354;2023-07-02T02:22:37;17.60;99.90
14411;DHT22;7290;50.854;4.354;2023-07-02T02:25:04;17.60;99.90
14411;DHT22;7290;50.854;4.354;2023-07-02T02:27:30;17.70;99.90
14411;DHT22;7290;50.854;4.354;2023-07-02T02:29:57;17.80;99.90
14411;DHT22;7290;50.854;4.354;2023-07-02T02:32:23;17.70;99.90
14411;DHT22;7290;50.854;4.354;2023-07-02T02:34:49;17.70;99.90
14411;DHT22;7290;50.854;4.354;2023-07-02T02:37:15;17.70;99.90
14411;DHT22;7290;50.854;4.354;2023-07-02T02:39:41;17.70;99.90
14411;DHT22;7290;50.854;4.354;2023-07-02T02:42:08;17.60;99.90
14411;DHT22;7290;50.854;4.354;2023-07-02T02:44:34;17.60;99.90
14411;DHT22;7290;50.854;4.354;2023-07-02T02:47:00;17.60;99.90
14411;DHT22;7290;50.854;4.354;2023-07-02T02:49:26;17.50;99.90
14411;DHT22;7290;50.854;4.354;2023-07-02T02:51:52;17.30;99.90
14411;DHT22;7290;50.854;4.354;2023-07-02T02:54:18;17.30;99.90
14411;DHT22;7290;50.854;4.354;2023-07-02T02:56:44;17.40;99.90
14411;DHT22;7290;50.854;4.354;2023-07-02T02:59:11;17.30;99.90
14411;DHT22;7290;50.854;4.354;2023-07-02T03:01:37;17.30;99.90
14411;DHT22;7290;50.854;4.354;2023-07-02T03:04:04;17.30;99.90
14411;DHT22;7290;50.854;4.354;2023-07-02T03:06:33;17.30;99.90
14411;DHT22;7290;50.854;4.354;2023-07-02T03:08:59;17.30;99.90
14411;DHT22;7290;50.854;4.354;2023-07-02T03:11:26;17.30;99.90
14411;DHT22;7290;50.854;4.354;2023-07-02T03:13:52;17.30;99.90
14411;DHT22;7290;50.854;4.354;2023-07-02T03:16:18;17.30;99.90
14411;DHT22;7290;50.854;4.354;2023-07-02T03:18:47;17.30;99.90
14411;DHT22;7290;50.854;4.354;2023-07-02T03:21:14;17.30;99.90
14411;DHT22;7290;50.854;4.354;2023-07-02T03:23:40;17.50;99.90
14411;DHT22;7290;50.854;4.354;2023-07-02T03:26:06;17.50;99.90
14411;DHT22;7290;50.854;4.354;2023-07-02T03:28:32;17.40;99.90
14411;DHT22;7290;50.854;4.354;2023-07-02T03:31:00;17.30;99.90
14411;DHT22;7290;50.854;4.354;2023-07-02T03:33:26;17.10;99.90
14411;DHT22;7290;50.854;4.354;2023-07-02T03:35:52;17.00;99.90
14411;DHT22;7290;50.854;4.354;2023-07-02T03:38:19;17.00;99.90
14411;DHT22;7290;50.854;4.354;2023-07-02T03:40:45;17.00;99.90
14411;DHT22;7290;50.854;4.354;2023-07-02T03:43:11;17.00;99.90
14411;DHT22;7290;50.854;4.354;2023-07-02T03:45:37;16.90;99.90
14411;DHT22;7290;50.854;4.354;2023-07-02T03:48:04;16.90;99.90
14411;DHT22;7290;50.854;4.354;2023-07-02T03:50:30;16.90;99.90
14411;DHT22;7290;50.854;4.354;2023-07-02T03:52:56;16.90;99.90
14411;DHT22;7290;50.854;4.354;2023-07-02T03:55:22;16.90;99.90
14411;DHT22;7290;50.854;4.354;2023-07-02T03:57:49;16.90;99.90
14411;DHT22;7290;50.854;4.354;2023-07-02T04:00:15;16.80;99.90
14411;DHT22;7290;50.854;4.354;2023-07-02T04:02:42;16.70;99.90
14411;DHT22;7290;50.854;4.354;2023-07-02T04:05:08;16.60;99.90
14411;DHT22;7290;50.854;4.354;2023-07-02T04:07:34;16.60;99.90
14411;DHT22;7290;50.854;4.354;2023-07-02T04:10:00;16.60;99.90
14411;DHT22;7290;50.854;4.354;2023-07-02T04:12:27;16.70;99.90
14411;DHT22;7290;50.854;4.354;2023-07-02T04:14:53;16.60;99.90
14411;DHT22;7290;50.854;4.354;2023-07-02T04:17:19;16.70;99.90
14411;DHT22;7290;50.854;4.354;2023-07-02T04:19:45;16.70;99.90
14411;DHT22;7290;50.854;4.354;2023-07-02T04:22:11;16.70;99.90
14411;DHT22;7290;50.854;4.354;2023-07-02T04:24:37;16.60;99.90
14411;DHT22;7290;50.854;4.354;2023-07-02T04:27:03;16.60;99.90
14411;DHT22;7290;50.854;4.354;2023-07-02T04:29:30;16.60;99.90
14411;DHT22;7290;50.854;4.354;2023-07-02T04:31:56;16.70;99.90
14411;DHT22;7290;50.854;4.354;2023-07-02T04:34:22;16.70;99.90
14411;DHT22;7290;50.854;4.354;2023-07-02T04:36:48;16.70;99.90
14411;DHT22;7290;50.854;4.354;2023-07-02T04:39:14;16.80;99.90
14411;DHT22;7290;50.854;4.354;2023-07-02T04:41:40;16.90;99.90
14411;DHT22;7290;50.854;4.354;2023-07-02T04:44:06;16.90;99.90
14411;DHT22;7290;50.854;4.354;2023-07-02T04:46:34;16.90;99.90
14411;DHT22;7290;50.854;4.354;2023-07-02T04:49:00;16.80;99.90
14411;DHT22;7290;50.854;4.354;2023-07-02T04:51:26;16.70;99.90
14411;DHT22;7290;50.854;4.354;2023-07-02T04:53:52;16.70;99.90
14411;DHT22;7290;50.854;4.354;2023-07-02T04:56:18;16.70;99.90
14411;DHT22;7290;50.854;4.354;2023-07-02T04:58:44;16.60;99.90
14411;DHT22;7290;50.854;4.354;2023-07-02T05:01:10;16.60;99.90
14411;DHT22;7290;50.854;4.354;2023-07-02T05:03:38;16.60;99.90
14411;DHT22;7290;50.854;4.354;2023-07-02T05:06:04;16.70;99.90
14411;DHT22;7290;50.854;4.354;2023-07-02T05:08:30;16.80;99.90
14411;DHT22;7290;50.854;4.354;2023-07-02T05:10:56;16.90;99.90
14411;DHT22;7290;50.854;4.354;2023-07-02T05:13:22;16.90;99.90
14411;DHT22;7290;50.854;4.354;2023-07-02T05:15:48;17.10;99.90
14411;DHT22;7290;50.854;4.354;2023-07-02T05:18:14;17.20;99.90
14411;DHT22;7290;50.854;4.354;2023-07-02T05:20:41;17.10;99.90
14411;DHT22;7290;50.854;4.354;2023-07-02T05:23:07;16.90;99.90
14411;DHT22;7290;50.854;4.354;2023-07-02T05:25:33;16.90;99.90
14411;DHT22;7290;50.854;4.354;2023-07-02T05:27:59;17.50;99.90
14411;DHT22;7290;50.854;4.354;2023-07-02T05:30:25;17.90;99.90
14411;DHT22;7290;50.854;4.354;2023-07-02T05:32:51;17.90;99.90
14411;DHT22;7290;50.854;4.354;2023-07-02T05:35:17;17.90;99.90
14411;DHT22;7290;50.854;4.354;2023-07-02T05:37:44;17.90;99.90
14411;DHT22;7290;50.854;4.354;2023-07-02T05:40:11;18.30;99.90
14411;DHT22;7290;50.854;4.354;2023-07-02T05:42:37;18.10;99.90
14411;DHT22;7290;50.854;4.354;2023-07-02T05:45:04;18.10;99.90
14411;DHT22;7290;50.854;4.354;2023-07-02T05:47:30;18.20;99.90
14411;DHT22;7290;50.854;4.354;2023-07-02T05:49:56;18.10;99.90
14411;DHT22;7290;50.854;4.354;2023-07-02T05:52:22;17.90;99.90
14411;DHT22;7290;50.854;4.354;2023-07-02T05:54:49;17.90;99.90
14411;DHT22;7290;50.854;4.354;2023-07-02T05:57:15;18.30;99.90
14411;DHT22;7290;50.854;4.354;2023-07-02T05:59:41;18.70;99.90
14411;DHT22;7290;50.854;4.354;2023-07-02T06:02:07;19.30;99.90
14411;DHT22;7290;50.854;4.354;2023-07-02T06:04:33;19.80;99.90
14411;DHT22;7290;50.854;4.354;2023-07-02T06:06:59;19.60;99.90
14411;DHT22;7290;50.854;4.354;2023-07-02T06:09:25;20.10;99.90
14411;DHT22;7290;50.854;4.354;2023-07-02T06:11:51;21.20;99.90
14411;DHT22;7290;50.854;4.354;2023-07-02T06:14:17;21.70;99.90
14411;DHT22;7290;50.854;4.354;2023-07-02T06:16:44;21.70;99.90
14411;DHT22;7290;50.854;4.354;2023-07-02T06:19:10;21.40;99.90
14411;DHT22;7290;50.854;4.354;2023-07-02T06:21:36;21.00;99.90
14411;DHT22;7290;50.854;4.354;2023-07-02T06:24:02;20.80;99.90
14411;DHT22;7290;50.854;4.354;2023-07-02T06:26:29;20.40;99.90
14411;DHT22;7290;50.854;4.354;2023-07-02T06:28:55;19.90;99.90
14411;DHT22;7290;50.854;4.354;2023-07-02T06:31:22;20.20;99.90
14411;DHT22;7290;50.854;4.354;2023-07-02T06:33:48;20.60;99.90
14411;DHT22;7290;50.854;4.354;2023-07-02T06:36:14;21.10;99.90
14411;DHT22;7290;50.854;4.354;2023-07-02T06:38:40;22.00;99.90
14411;DHT22;7290;50.854;4.354;2023-07-02T06:41:06;22.40;99.90
14411;DHT22;7290;50.854;4.354;2023-07-02T06:43:32;22.80;99.90
14411;DHT22;7290;50.854;4.354;2023-07-02T06:45:59;22.80;99.90
14411;DHT22;7290;50.854;4.354;2023-07-02T06:48:25;22.60;99.90
14411;DHT22;7290;50.854;4.354;2023-07-02T06:50:51;22.30;99.90
14411;DHT22;7290;50.854;4.354;2023-07-02T06:53:17;22.00;99.90
14411;DHT22;7290;50.854;4.354;2023-07-02T06:55:43;22.00;99.90
14411;DHT22;7290;50.854;4.354;2023-07-02T06:58:09;23.00;99.90
14411;DHT22;7290;50.854;4.354;2023-07-02T07:00:36;23.20;99.90
14411;DHT22;7290;50.854;4.354;2023-07-02T07:03:03;22.30;99.90
14411;DHT22;7290;50.854;4.354;2023-07-02T07:05:29;22.10;99.90
14411;DHT22;7290;50.854;4.354;2023-07-02T07:07:56;21.50;99.90
14411;DHT22;7290;50.854;4.354;2023-07-02T07:10:22;20.80;99.90
14411;DHT22;7290;50.854;4.354;2023-07-02T07:12:48;20.70;99.90
14411;DHT22;7290;50.854;4.354;2023-07-02T07:15:14;20.90;99.90
14411;DHT22;7290;50.854;4.354;2023-07-02T07:17:49;21.20;99.90
14411;DHT22;7290;50.854;4.354;2023-07-02T07:20:16;21.30;99.90
14411;DHT22;7290;50.854;4.354;2023-07-02T07:22:42;21.40;99.90
14411;DHT22;7290;50.854;4.354;2023-07-02T07:25:08;21.30;99.90
14411;DHT22;7290;50.854;4.354;2023-07-02T07:27:35;21.30;99.90
14411;DHT22;7290;50.854;4.354;2023-07-02T07:30:01;21.30;99.90
14411;DHT22;7290;50.854;4.354;2023-07-02T07:32:27;21.10;99.90
14411;DHT22;7290;50.854;4.354;2023-07-02T07:34:53;20.80;99.90
14411;DHT22;7290;50.854;4.354;2023-07-02T07:37:20;21.00;99.90
14411;DHT22;7290;50.854;4.354;2023-07-02T07:39:46;21.40;99.90
14411;DHT22;7290;50.854;4.354;2023-07-02T07:42:14;21.40;99.90
14411;DHT22;7290;50.854;4.354;2023-07-02T07:44:41;21.50;99.90
14411;DHT22;7290;50.854;4.354;2023-07-02T07:47:07;21.70;99.90
14411;DHT22;7290;50.854;4.354;2023-07-02T07:49:33;21.80;99.90
14411;DHT22;7290;50.854;4.354;2023-07-02T07:51:59;22.20;99.90
14411;DHT22;7290;50.854;4.354;2023-07-02T07:54:26;22.50;99.90
14411;DHT22;7290;50.854;4.354;2023-07-02T07:56:52;22.30;99.90
14411;DHT22;7290;50.854;4.354;2023-07-02T07:59:18;22.20;99.90
14411;DHT22;7290;50.854;4.354;2023-07-02T08:01:44;22.10;99.90
14411;DHT22;7290;50.854;4.354;2023-07-02T08:04:12;22.30;99.90
14411;DHT22;7290;50.854;4.354;2023-07-02T08:06:38;22.40;99.90
14411;DHT22;7290;50.854;4.354;2023-07-02T08:09:04;21.90;99.90
14411;DHT22;7290;50.854;4.354;2023-07-02T08:11:30;22.00;99.90
14411;DHT22;7290;50.854;4.354;2023-07-02T08:13:58;21.70;99.90
14411;DHT22;7290;50.854;4.354;2023-07-02T08:16:24;22.00;99.90
14411;DHT22;7290;50.854;4.354;2023-07-02T08:18:50;22.70;99.90
14411;DHT22;7290;50.854;4.354;2023-07-02T08:21:16;23.30;99.90
14411;DHT22;7290;50.854;4.354;2023-07-02T08:23:42;23.60;99.90
14411;DHT22;7290;50.854;4.354;2023-07-02T08:26:09;23.70;99.90
14411;DHT22;7290;50.854;4.354;2023-07-02T08:28:37;24.10;99.90
14411;DHT22;7290;50.854;4.354;2023-07-02T08:31:03;24.40;99.90
14411;DHT22;7290;50.854;4.354;2023-07-02T08:33:29;24.50;99.90
14411;DHT22;7290;50.854;4.354;2023-07-02T08:35:56;24.30;99.90
14411;DHT22;7290;50.854;4.354;2023-07-02T08:38:22;23.90;99.90
14411;DHT22;7290;50.854;4.354;2023-07-02T08:40:49;23.70;99.90
14411;DHT22;7290;50.854;4.354;2023-07-02T08:43:15;23.50;99.90
14411;DHT22;7290;50.854;4.354;2023-07-02T08:45:42;23.10;99.90
14411;DHT22;7290;50.854;4.354;2023-07-02T08:48:08;23.20;99.90
14411;DHT22;7290;50.854;4.354;2023-07-02T08:50:34;23.20;99.90
14411;DHT22;7290;50.854;4.354;2023-07-02T08:53:01;23.20;99.90
14411;DHT22;7290;50.854;4.354;2023-07-02T08:55:27;22.80;99.90
14411;DHT22;7290;50.854;4.354;2023-07-02T08:57:56;22.20;99.90
14411;DHT22;7290;50.854;4.354;2023-07-02T09:00:25;22.20;99.90
14411;DHT22;7290;50.854;4.354;2023-07-02T09:02:52;22.80;99.90
14411;DHT22;7290;50.854;4.354;2023-07-02T09:05:18;22.90;99.90
14411;DHT22;7290;50.854;4.354;2023-07-02T09:07:45;22.70;99.90
14411;DHT22;7290;50.854;4.354;2023-07-02T09:10:12;22.20;99.90
14411;DHT22;7290;50.854;4.354;2023-07-02T09:12:38;22.20;99.90
14411;DHT22;7290;50.854;4.354;2023-07-02T09:15:06;22.20;99.90
14411;DHT22;7290;50.854;4.354;2023-07-02T09:17:33;22.30;99.90
14411;DHT22;7290;50.854;4.354;2023-07-02T09:20:01;22.00;99.90
14411;DHT22;7290;50.854;4.354;2023-07-02T09:22:28;21.80;99.90
14411;DHT22;7290;50.854;4.354;2023-07-02T09:24:55;21.80;99.90
14411;DHT22;7290;50.854;4.354;2023-07-02T09:27:33;21.90;99.90
14411;DHT22;7290;50.854;4.354;2023-07-02T09:30:06;21.70;99.90
14411;DHT22;7290;50.854;4.354;2023-07-02T09:32:32;21.80;99.90
14411;DHT22;7290;50.854;4.354;2023-07-02T09:34:59;22.40;99.90
14411;DHT22;7290;50.854;4.354;2023-07-02T09:37:26;23.60;99.90
14411;DHT22;7290;50.854;4.354;2023-07-02T09:39:53;24.30;99.90
14411;DHT22;7290;50.854;4.354;2023-07-02T09:42:21;24.70;99.90
14411;DHT22;7290;50.854;4.354;2023-07-02T09:44:48;23.90;99.90
14411;DHT22;7290;50.854;4.354;2023-07-02T09:47:18;22.90;99.90
14411;DHT22;7290;50.854;4.354;2023-07-02T09:49:49;22.40;99.90
14411;DHT22;7290;50.854;4.354;2023-07-02T09:52:19;21.90;99.90
14411;DHT22;7290;50.854;4.354;2023-07-02T09:54:45;21.80;99.90
14411;DHT22;7290;50.854;4.354;2023-07-02T09:57:11;21.80;99.90
14411;DHT22;7290;50.854;4.354;2023-07-02T09:59:38;21.60;99.90
14411;DHT22;7290;50.854;4.354;2023-07-02T10:02:05;21.70;99.90
14411;DHT22;7290;50.854;4.354;2023-07-02T10:04:40;22.20;99.90
14411;DHT22;7290;50.854;4.354;2023-07-02T10:07:07;22.60;99.90
14411;DHT22;7290;50.854;4.354;2023-07-02T10:09:38;23.00;99.90
14411;DHT22;7290;50.854;4.354;2023-07-02T10:12:19;23.20;99.90
14411;DHT22;7290;50.854;4.354;2023-07-02T10:14:47;24.20;99.90
14411;DHT22;7290;50.854;4.354;2023-07-02T10:17:24;25.00;98.40
14411;DHT22;7290;50.854;4.354;2023-07-02T10:19:50;25.10;98.60
14411;DHT22;7290;50.854;4.354;2023-07-02T10:22:17;24.70;98.10
14411;DHT22;7290;50.854;4.354;2023-07-02T10:24:51;24.20;97.70
14411;DHT22;7290;50.854;4.354;2023-07-02T10:27:18;23.70;98.60
14411;DHT22;7290;50.854;4.354;2023-07-02T10:29:49;23.30;99.10
14411;DHT22;7290;50.854;4.354;2023-07-02T10:32:26;22.80;99.60
14411;DHT22;7290;50.854;4.354;2023-07-02T10:34:52;22.40;99.90
14411;DHT22;7290;50.854;4.354;2023-07-02T10:37:18;22.50;99.90
14411;DHT22;7290;50.854;4.354;2023-07-02T10:39:45;22.70;99.90
14411;DHT22;7290;50.854;4.354;2023-07-02T10:42:12;22.50;99.90
14411;DHT22;7290;50.854;4.354;2023-07-02T10:44:47;22.60;99.90
14411;DHT22;7290;50.854;4.354;2023-07-02T10:47:13;22.50;99.90
14411;DHT22;7290;50.854;4.354;2023-07-02T10:49:39;22.90;99.90
14411;DHT22;7290;50.854;4.354;2023-07-02T10:52:06;23.80;98.60
14411;DHT22;7290;50.854;4.354;2023-07-02T10:54:39;24.50;97.20
14411;DHT22;7290;50.854;4.354;2023-07-02T10:57:06;24.20;97.30
14411;DHT22;7290;50.854;4.354;2023-07-02T10:59:33;24.00;97.80
14411;DHT22;7290;50.854;4.354;2023-07-02T11:01:59;23.70;98.00
14411;DHT22;7290;50.854;4.354;2023-07-02T11:04:28;23.00;98.80
14411;DHT22;7290;50.854;4.354;2023-07-02T11:06:54;23.10;99.20
14411;DHT22;7290;50.854;4.354;2023-07-02T11:09:20;23.30;98.60
14411;DHT22;7290;50.854;4.354;2023-07-02T11:11:55;23.10;98.50
14411;DHT22;7290;50.854;4.354;2023-07-02T11:14:29;22.80;98.70
14411;DHT22;7290;50.854;4.354;2023-07-02T11:16:56;22.40;99.40
14411;DHT22;7290;50.854;4.354;2023-07-02T11:19:22;22.10;99.40
14411;DHT22;7290;50.854;4.354;2023-07-02T11:21:52;21.90;99.90
14411;DHT22;7290;50.854;4.354;2023-07-02T11:24:27;22.10;99.90
14411;DHT22;7290;50.854;4.354;2023-07-02T11:26:53;22.60;99.30
14411;DHT22;7290;50.854;4.354;2023-07-02T11:29:19;23.90;97.60
14411;DHT22;7290;50.854;4.354;2023-07-02T11:31:45;24.30;96.90
14411;DHT22;7290;50.854;4.354;2023-07-02T11:34:12;24.00;96.60
14411;DHT22;7290;50.854;4.354;2023-07-02T11:36:38;24.50;96.00
14411;DHT22;7290;50.854;4.354;2023-07-02T11:39:04;24.80;95.40
14411;DHT22;7290;50.854;4.354;2023-07-02T11:41:36;26.20;94.00
14411;DHT22;7290;50.854;4.354;2023-07-02T11:44:02;26.80;93.50
14411;DHT22;7290;50.854;4.354;2023-07-02T11:46:28;27.30;92.50
14411;DHT22;7290;50.854;4.354;2023-07-02T11:48:55;25.60;93.60
14411;DHT22;7290;50.854;4.354;2023-07-02T11:51:22;24.40;95.50
14411;DHT22;7290;50.854;4.354;2023-07-02T11:53:48;23.90;95.80
14411;DHT22;7290;50.854;4.354;2023-07-02T11:56:14;23.50;96.50
14411;DHT22;7290;50.854;4.354;2023-07-02T11:58:41;23.40;96.90
14411;DHT22;7290;50.854;4.354;2023-07-02T12:01:07;24.00;96.20
14411;DHT22;7290;50.854;4.354;2023-07-02T12:03:35;25.20;94.80
14411;DHT22;7290;50.854;4.354;2023-07-02T12:06:01;25.70;94.30
14411;DHT22;7290;50.854;4.354;2023-07-02T12:08:28;26.00;93.80
14411;DHT22;7290;50.854;4.354;2023-07-02T12:10:54;26.10;93.80
14411;DHT22;7290;50.854;4.354;2023-07-02T12:13:20;26.30;93.80
14411;DHT22;7290;50.854;4.354;2023-07-02T12:15:47;26.80;92.10
14411;DHT22;7290;50.854;4.354;2023-07-02T12:18:13;26.30;92.70
14411;DHT22;7290;50.854;4.354;2023-07-02T12:20:40;26.90;92.80
14411;DHT22;7290;50.854;4.354;2023-07-02T12:23:06;27.60;91.90
14411;DHT22;7290;50.854;4.354;2023-07-02T12:25:33;26.20;93.20
14411;DHT22;7290;50.854;4.354;2023-07-02T12:28:02;25.40;94.50
14411;DHT22;7290;50.854;4.354;2023-07-02T12:30:28;25.10;94.50
14411;DHT22;7290;50.854;4.354;2023-07-02T12:32:54;24.70;94.80
14411;DHT22;7290;50.854;4.354;2023-07-02T12:35:20;24.50;95.80
14411;DHT22;7290;50.854;4.354;2023-07-02T12:37:48;24.50;95.90
14411;DHT22;7290;50.854;4.354;2023-07-02T12:40:15;24.40;95.70
14411;DHT22;7290;50.854;4.354;2023-07-02T12:42:42;24.30;95.80
14411;DHT22;7290;50.854;4.354;2023-07-02T12:45:10;24.00;95.50
14411;DHT22;7290;50.854;4.354;2023-07-02T12:47:37;23.80;95.60
14411;DHT22;7290;50.854;4.354;2023-07-02T12:50:03;23.80;95.70
14411;DHT22;7290;50.854;4.354;2023-07-02T12:52:30;23.90;95.90
14411;DHT22;7290;50.854;4.354;2023-07-02T12:54:56;24.10;95.60
14411;DHT22;7290;50.854;4.354;2023-07-02T12:57:22;24.30;95.40
14411;DHT22;7290;50.854;4.354;2023-07-02T12:59:49;24.00;95.50
14411;DHT22;7290;50.854;4.354;2023-07-02T13:02:15;23.80;95.60
14411;DHT22;7290;50.854;4.354;2023-07-02T13:04:41;24.20;95.70
14411;DHT22;7290;50.854;4.354;2023-07-02T13:07:07;24.30;95.30
14411;DHT22;7290;50.854;4.354;2023-07-02T13:09:33;24.20;95.30
14411;DHT22;7290;50.854;4.354;2023-07-02T13:11:59;24.40;95.20
14411;DHT22;7290;50.854;4.354;2023-07-02T13:14:26;24.60;94.80
14411;DHT22;7290;50.854;4.354;2023-07-02T13:16:53;24.70;94.70
14411;DHT22;7290;50.854;4.354;2023-07-02T13:19:19;24.50;94.60
14411;DHT22;7290;50.854;4.354;2023-07-02T13:21:45;24.50;94.60
14411;DHT22;7290;50.854;4.354;2023-07-02T13:24:11;24.80;94.40
14411;DHT22;7290;50.854;4.354;2023-07-02T13:26:38;24.90;94.20
14411;DHT22;7290;50.854;4.354;2023-07-02T13:29:04;24.60;94.00
14411;DHT22;7290;50.854;4.354;2023-07-02T13:31:30;24.50;94.50
14411;DHT22;7290;50.854;4.354;2023-07-02T13:33:57;24.60;94.40
14411;DHT22;7290;50.854;4.354;2023-07-02T13:36:24;24.50;94.20
14411;DHT22;7290;50.854;4.354;2023-07-02T13:38:50;24.10;94.50
14411;DHT22;7290;50.854;4.354;2023-07-02T13:41:16;23.90;95.10
14411;DHT22;7290;50.854;4.354;2023-07-02T13:43:43;23.90;95.40
14411;DHT22;7290;50.854;4.354;2023-07-02T13:46:09;23.80;95.30
14411;DHT22;7290;50.854;4.354;2023-07-02T13:48:36;23.90;95.10
14411;DHT22;7290;50.854;4.354;2023-07-02T13:51:02;24.30;94.80
14411;DHT22;7290;50.854;4.354;2023-07-02T13:53:29;24.10;94.90
14411;DHT22;7290;50.854;4.354;2023-07-02T13:55:55;24.20;94.90
14411;DHT22;7290;50.854;4.354;2023-07-02T13:58:22;24.40;94.70
14411;DHT22;7290;50.854;4.354;2023-07-02T14:00:49;24.60;94.60
14411;DHT22;7290;50.854;4.354;2023-07-02T14:03:15;24.60;94.40
14411;DHT22;7290;50.854;4.354;2023-07-02T14:05:41;24.40;94.60
14411;DHT22;7290;50.854;4.354;2023-07-02T14:08:10;24.30;94.90
14411;DHT22;7290;50.854;4.354;2023-07-02T14:10:36;24.50;94.80
14411;DHT22;7290;50.854;4.354;2023-07-02T14:13:03;24.00;95.10
14411;DHT22;7290;50.854;4.354;2023-07-02T14:15:29;24.00;95.10
14411;DHT22;7290;50.854;4.354;2023-07-02T14:17:56;24.40;94.80
14411;DHT22;7290;50.854;4.354;2023-07-02T14:20:23;24.60;94.40
14411;DHT22;7290;50.854;4.354;2023-07-02T14:22:49;24.50;94.50
14411;DHT22;7290;50.854;4.354;2023-07-02T14:25:15;24.40;94.80
14411;DHT22;7290;50.854;4.354;2023-07-02T14:27:41;24.40;94.80
14411;DHT22;7290;50.854;4.354;2023-07-02T14:30:08;24.40;94.40
14411;DHT22;7290;50.854;4.354;2023-07-02T14:32:35;24.20;94.60
14411;DHT22;7290;50.854;4.354;2023-07-02T14:35:02;24.10;95.00
14411;DHT22;7290;50.854;4.354;2023-07-02T14:37:29;24.30;94.90
14411;DHT22;7290;50.854;4.354;2023-07-02T14:39:55;24.30;95.20
14411;DHT22;7290;50.854;4.354;2023-07-02T14:42:21;24.70;94.60
14411;DHT22;7290;50.854;4.354;2023-07-02T14:44:47;24.60;94.40
14411;DHT22;7290;50.854;4.354;2023-07-02T14:47:13;24.50;94.60
14411;DHT22;7290;50.854;4.354;2023-07-02T14:49:39;24.30;94.60
14411;DHT22;7290;50.854;4.354;2023-07-02T14:52:07;23.90;94.80
14411;DHT22;7290;50.854;4.354;2023-07-02T14:54:33;24.20;94.60
14411;DHT22;7290;50.854;4.354;2023-07-02T14:57:00;24.60;93.80
14411;DHT22;7290;50.854;4.354;2023-07-02T14:59:26;24.80;93.20
14411;DHT22;7290;50.854;4.354;2023-07-02T15:01:52;24.80;92.80
14411;DHT22;7290;50.854;4.354;2023-07-02T15:04:18;24.50;93.10
14411;DHT22;7290;50.854;4.354;2023-07-02T15:06:44;24.00;94.10
14411;DHT22;7290;50.854;4.354;2023-07-02T15:09:11;24.20;93.70
14411;DHT22;7290;50.854;4.354;2023-07-02T15:11:37;24.30;93.60
14411;DHT22;7290;50.854;4.354;2023-07-02T15:14:03;24.00;93.80
14411;DHT22;7290;50.854;4.354;2023-07-02T15:16:29;23.90;94.30
14411;DHT22;7290;50.854;4.354;2023-07-02T15:18:55;24.10;94.10
14411;DHT22;7290;50.854;4.354;2023-07-02T15:21:21;24.10;94.10
14411;DHT22;7290;50.854;4.354;2023-07-02T15:23:48;24.20;94.20
14411;DHT22;7290;50.854;4.354;2023-07-02T15:26:15;24.20;93.90
14411;DHT22;7290;50.854;4.354;2023-07-02T15:28:42;24.00;94.00
14411;DHT22;7290;50.854;4.354;2023-07-02T15:31:09;24.10;94.00
14411;DHT22;7290;50.854;4.354;2023-07-02T15:33:37;24.30;93.90
14411;DHT22;7290;50.854;4.354;2023-07-02T15:36:04;24.40;94.00
14411;DHT22;7290;50.854;4.354;2023-07-02T15:38:31;24.30;94.00
14411;DHT22;7290;50.854;4.354;2023-07-02T15:41:09;24.40;94.20
14411;DHT22;7290;50.854;4.354;2023-07-02T15:43:37;24.20;94.10